sensor_id;sensor_type;location;lat;lon;timestamp;pressure;altitude;pressure_sealevel;temperature;humidity
49367;BME280;35245;52.026;8.540;2023-07-30T00:02:08;51306.06;;;-145.42;100.00
49367;BME280;35245;52.026;8.540;2023-07-30T00:04:35;51280.28;;;-145.42;100.00
49367;BME280;35245;52.026;8.540;2023-07-30T00:07:04;51321.91;;;-145.42;100.00
49367;BME280;35245;52.026;8.540;2023-07-30T00:09:31;51310.03;;;-145.42;100.00
49367;BME280;35245;52.026;8.540;2023-07-30T00:11:58;51319.94;;;-145.42;100.00
49367;BME280;35245;52.026;8.540;2023-07-30T00:14:27;51310.03;;;-145.42;100.00
49367;BME280;35245;52.026;8.540;2023-07-30T00:16:54;51310.03;;;-145.42;100.00
49367;BME280;35245;52.026;8.540;2023-07-30T00:19:22;51314.00;;;-145.42;100.00
49367;BME280;35245;52.026;8.540;2023-07-30T00:21:49;51331.84;;;-145.42;100.00
49367;BME280;35245;52.026;8.540;2023-07-30T00:24:17;51333.81;;;-145.42;100.00
49367;BME280;35245;52.026;8.540;2023-07-30T00:26:44;51296.16;;;-145.42;100.00
49367;BME280;35245;52.026;8.540;2023-07-30T00:29:11;51315.97;;;-145.42;100.00
49367;BME280;35245;52.026;8.540;2023-07-30T00:31:38;51284.25;;;-145.42;100.00
49367;BME280;35245;52.026;8.540;2023-07-30T00:34:05;51288.22;;;-145.42;100.00
49367;BME280;35245;52.026;8.540;2023-07-30T00:36:33;51300.13;;;-145.42;100.00
49367;BME280;35245;52.026;8.540;2023-07-30T00:39:00;51304.09;;;-145.42;100.00
49367;BME280;35245;52.026;8.540;2023-07-30T00:41:27;51296.16;;;-145.42;100.00
49367;BME280;35245;52.026;8.540;2023-07-30T00:43:54;51300.13;;;-145.42;100.00
49367;BME280;35245;52.026;8.540;2023-07-30T00:46:21;51333.81;;;-145.42;100.00
49367;BME280;35245;52.026;8.540;2023-07-30T00:48:49;51327.88;;;-145.42;100.00
49367;BME280;35245;52.026;8.540;2023-07-30T00:51:17;51304.09;;;-145.42;100.00
49367;BME280;35245;52.026;8.540;2023-07-30T00:53:44;51327.88;;;-145.42;100.00
49367;BME280;35245;52.026;8.540;2023-07-30T00:56:11;51315.97;;;-145.42;100.00
49367;BME280;35245;52.026;8.540;2023-07-30T00:58:41;51341.75;;;-145.42;100.00
49367;BME280;35245;52.026;8.540;2023-07-30T01:01:09;51314.00;;;-145.42;100.00
49367;BME280;35245;52.026;8.540;2023-07-30T01:03:37;51302.09;;;-145.42;100.00
49367;BME280;35245;52.026;8.540;2023-07-30T01:06:05;51294.16;;;-145.42;100.00
49367;BME280;35245;52.026;8.540;2023-07-30T01:08:32;51315.97;;;-145.42;100.00
49367;BME280;35245;52.026;8.540;2023-07-30T01:10:59;51286.25;;;-145.42;100.00
49367;BME280;35245;52.026;8.540;2023-07-30T01:13:28;51294.16;;;-145.42;100.00
49367;BME280;35245;52.026;8.540;2023-07-30T01:15:57;51321.91;;;-145.42;100.00
49367;BME280;35245;52.026;8.540;2023-07-30T01:18:24;51329.84;;;-145.42;100.00
49367;BME280;35245;52.026;8.540;2023-07-30T01:20:58;51315.97;;;-145.42;100.00
49367;BME280;35245;52.026;8.540;2023-07-30T01:23:25;51296.16;;;-145.42;100.00
49367;BME280;35245;52.026;8.540;2023-07-30T01:26:02;51304.09;;;-145.42;100.00
49367;BME280;35245;52.026;8.540;2023-07-30T01:28:37;51284.25;;;-145.42;100.00
49367;BME280;35245;52.026;8.540;2023-07-30T01:31:06;51308.03;;;-145.42;100.00
49367;BME280;35245;52.026;8.540;2023-07-30T01:33:34;51290.22;;;-145.42;100.00
49367;BME280;35245;52.026;8.540;2023-07-30T01:36:04;51270.38;;;-145.42;100.00
49367;BME280;35245;52.026;8.540;2023-07-30T01:38:32;51314.00;;;-145.42;100.00
49367;BME280;35245;52.026;8.540;2023-07-30T01:41:00;51300.13;;;-145.42;100.00
49367;BME280;35245;52.026;8.540;2023-07-30T01:43:27;51302.09;;;-145.42;100.00
49367;BME280;35245;52.026;8.540;2023-07-30T01:45:54;51286.25;;;-145.42;100.00
49367;BME280;35245;52.026;8.540;2023-07-30T01:48:21;51280.28;;;-145.42;100.00
49367;BME280;35245;52.026;8.540;2023-07-30T01:50:49;51296.16;;;-145.42;100.00
49367;BME280;35245;52.026;8.540;2023-07-30T01:53:17;51319.94;;;-145.42;100.00
49367;BME280;35245;52.026;8.540;2023-07-30T01:55:44;51304.09;;;-145.42;100.00
49367;BME280;35245;52.026;8.540;2023-07-30T01:58:12;51292.19;;;-145.42;100.00
49367;BME280;35245;52.026;8.540;2023-07-30T02:00:39;51288.22;;;-145.42;100.00
49367;BME280;35245;52.026;8.540;2023-07-30T02:03:07;51292.19;;;-145.42;100.00
49367;BME280;35245;52.026;8.540;2023-07-30T02:05:34;51333.81;;;-145.42;100.00
49367;BME280;35245;52.026;8.540;2023-07-30T02:08:01;51292.19;;;-145.42;100.00
49367;BME280;35245;52.026;8.540;2023-07-30T02:10:29;51321.91;;;-145.42;100.00
49367;BME280;35245;52.026;8.540;2023-07-30T02:12:57;51319.94;;;-145.42;100.00
49367;BME280;35245;52.026;8.540;2023-07-30T02:15:24;51327.88;;;-145.42;100.00
49367;BME280;35245;52.026;8.540;2023-07-30T02:17:51;51308.03;;;-145.42;100.00
49367;BME280;35245;52.026;8.540;2023-07-30T02:20:18;51314.00;;;-145.42;100.00
49367;BME280;35245;52.026;8.540;2023-07-30T02:22:45;51294.16;;;-145.42;100.00
49367;BME280;35245;52.026;8.540;2023-07-30T02:25:12;51282.28;;;-145.42;100.00
49367;BME280;35245;52.026;8.540;2023-07-30T02:27:41;51286.25;;;-145.42;100.00
49367;BME280;35245;52.026;8.540;2023-07-30T02:30:09;51302.09;;;-145.42;100.00
49367;BME280;35245;52.026;8.540;2023-07-30T02:32:36;51315.97;;;-145.42;100.00
49367;BME280;35245;52.026;8.540;2023-07-30T02:35:04;51294.16;;;-145.42;100.00
49367;BME280;35245;52.026;8.540;2023-07-30T02:37:31;51298.13;;;-145.42;100.00
49367;BME280;35245;52.026;8.540;2023-07-30T02:39:58;51312.00;;;-145.42;100.00
49367;BME280;35245;52.026;8.540;2023-07-30T02:42:25;51298.13;;;-145.42;100.00
49367;BME280;35245;52.026;8.540;2023-07-30T02:44:54;51321.91;;;-145.42;100.00
49367;BME280;35245;52.026;8.540;2023-07-30T02:47:21;51286.25;;;-145.42;100.00
49367;BME280;35245;52.026;8.540;2023-07-30T02:49:48;51250.56;;;-145.42;100.00
49367;BME280;35245;52.026;8.540;2023-07-30T02:52:15;51294.16;;;-145.42;100.00
49367;BME280;35245;52.026;8.540;2023-07-30T02:54:42;51280.28;;;-145.42;100.00
49367;BME280;35245;52.026;8.540;2023-07-30T02:57:09;51288.22;;;-145.42;100.00
49367;BME280;35245;52.026;8.540;2023-07-30T02:59:38;51284.25;;;-145.42;100.00
49367;BME280;35245;52.026;8.540;2023-07-30T03:02:07;51266.41;;;-145.42;100.00
49367;BME280;35245;52.026;8.540;2023-07-30T03:04:35;51240.66;;;-145.42;100.00
49367;BME280;35245;52.026;8.540;2023-07-30T03:07:02;51284.25;;;-145.42;100.00
49367;BME280;35245;52.026;8.540;2023-07-30T03:09:29;51300.13;;;-145.42;100.00
49367;BME280;35245;52.026;8.540;2023-07-30T03:11:56;51274.34;;;-145.42;100.00
49367;BME280;35245;52.026;8.540;2023-07-30T03:14:23;51292.19;;;-145.42;100.00
49367;BME280;35245;52.026;8.540;2023-07-30T03:16:51;51270.38;;;-145.42;100.00
49367;BME280;35245;52.026;8.540;2023-07-30T03:19:19;51264.44;;;-145.42;100.00
49367;BME280;35245;52.026;8.540;2023-07-30T03:21:46;51256.50;;;-145.42;100.00
49367;BME280;35245;52.026;8.540;2023-07-30T03:24:14;51262.44;;;-145.42;100.00
49367;BME280;35245;52.026;8.540;2023-07-30T03:26:41;51274.34;;;-145.42;100.00
49367;BME280;35245;52.026;8.540;2023-07-30T03:29:08;51274.34;;;-145.42;100.00
49367;BME280;35245;52.026;8.540;2023-07-30T03:31:35;51246.59;;;-145.42;100.00
49367;BME280;35245;52.026;8.540;2023-07-30T03:34:02;51264.44;;;-145.42;100.00
49367;BME280;35245;52.026;8.540;2023-07-30T03:36:31;51246.59;;;-145.42;100.00
49367;BME280;35245;52.026;8.540;2023-07-30T03:38:58;51232.72;;;-145.42;100.00
49367;BME280;35245;52.026;8.540;2023-07-30T03:41:25;51262.44;;;-145.42;100.00
49367;BME280;35245;52.026;8.540;2023-07-30T03:43:52;51280.28;;;-145.42;100.00
49367;BME280;35245;52.026;8.540;2023-07-30T03:46:20;51250.56;;;-145.42;100.00
49367;BME280;35245;52.026;8.540;2023-07-30T03:48:47;51266.41;;;-145.42;100.00
49367;BME280;35245;52.026;8.540;2023-07-30T03:51:14;51240.66;;;-145.42;100.00
49367;BME280;35245;52.026;8.540;2023-07-30T03:53:42;51236.69;;;-145.42;100.00
49367;BME280;35245;52.026;8.540;2023-07-30T03:56:10;51274.34;;;-145.42;100.00
49367;BME280;35245;52.026;8.540;2023-07-30T03:58:37;51242.63;;;-145.42;100.00
49367;BME280;35245;52.026;8.540;2023-07-30T04:01:04;51264.44;;;-145.42;100.00
49367;BME280;35245;52.026;8.540;2023-07-30T04:03:32;51246.59;;;-145.42;100.00
49367;BME280;35245;52.026;8.540;2023-07-30T04:05:59;51226.78;;;-145.42;100.00
49367;BME280;35245;52.026;8.540;2023-07-30T04:08:26;51260.47;;;-145.42;100.00
49367;BME280;35245;52.026;8.540;2023-07-30T04:10:55;51240.66;;;-145.42;100.00
49367;BME280;35245;52.026;8.540;2023-07-30T04:13:22;51276.31;;;-145.42;100.00
49367;BME280;35245;52.026;8.540;2023-07-30T04:15:49;51262.44;;;-145.42;100.00
49367;BME280;35245;52.026;8.540;2023-07-30T04:18:16;51252.53;;;-145.42;100.00
49367;BME280;35245;52.026;8.540;2023-07-30T04:20:43;51232.72;;;-145.42;100.00
49367;BME280;35245;52.026;8.540;2023-07-30T04:23:10;51248.56;;;-145.42;100.00
49367;BME280;35245;52.026;8.540;2023-07-30T04:25:38;51276.31;;;-145.42;100.00
49367;BME280;35245;52.026;8.540;2023-07-30T04:28:06;51264.44;;;-145.42;100.00
49367;BME280;35245;52.026;8.540;2023-07-30T04:30:34;51280.28;;;-145.42;100.00
49367;BME280;35245;52.026;8.540;2023-07-30T04:33:01;51282.28;;;-145.42;100.00
49367;BME280;35245;52.026;8.540;2023-07-30T04:35:28;51274.34;;;-145.42;100.00
49367;BME280;35245;52.026;8.540;2023-07-30T04:37:56;51272.38;;;-145.42;100.00
49367;BME280;35245;52.026;8.540;2023-07-30T04:40:23;51292.19;;;-145.42;100.00
49367;BME280;35245;52.026;8.540;2023-07-30T04:42:50;51258.50;;;-145.42;100.00
49367;BME280;35245;52.026;8.540;2023-07-30T04:45:19;51260.47;;;-145.42;100.00
49367;BME280;35245;52.026;8.540;2023-07-30T04:47:46;51244.63;;;-145.42;100.00
49367;BME280;35245;52.026;8.540;2023-07-30T04:50:13;51284.25;;;-145.42;100.00
49367;BME280;35245;52.026;8.540;2023-07-30T04:52:40;51298.13;;;-145.42;100.00
49367;BME280;35245;52.026;8.540;2023-07-30T04:55:08;51252.53;;;-145.42;100.00
49367;BME280;35245;52.026;8.540;2023-07-30T04:57:35;51294.16;;;-145.42;100.00
49367;BME280;35245;52.026;8.540;2023-07-30T05:00:03;51288.22;;;-145.42;100.00
49367;BME280;35245;52.026;8.540;2023-07-30T05:02:32;51226.78;;;-145.42;100.00
49367;BME280;35245;52.026;8.540;2023-07-30T05:04:59;51274.34;;;-145.42;100.00
49367;BME280;35245;52.026;8.540;2023-07-30T05:07:26;51252.53;;;-145.42;100.00
49367;BME280;35245;52.026;8.540;2023-07-30T05:09:53;51280.28;;;-145.42;100.00
49367;BME280;35245;52.026;8.540;2023-07-30T05:12:20;51272.38;;;-145.42;100.00
49367;BME280;35245;52.026;8.540;2023-07-30T05:14:47;51260.47;;;-145.42;100.00
49367;BME280;35245;52.026;8.540;2023-07-30T05:17:14;51280.28;;;-145.42;100.00
49367;BME280;35245;52.026;8.540;2023-07-30T05:19:43;51260.47;;;-145.42;100.00
49367;BME280;35245;52.026;8.540;2023-07-30T05:22:10;51268.41;;;-145.42;100.00
49367;BME280;35245;52.026;8.540;2023-07-30T05:24:37;51258.50;;;-145.42;100.00
49367;BME280;35245;52.026;8.540;2023-07-30T05:27:05;51236.69;;;-145.42;100.00
49367;BME280;35245;52.026;8.540;2023-07-30T05:29:32;51272.38;;;-145.42;100.00
49367;BME280;35245;52.026;8.540;2023-07-30T05:31:59;51288.22;;;-145.42;100.00
49367;BME280;35245;52.026;8.540;2023-07-30T05:34:26;51260.47;;;-145.42;100.00
49367;BME280;35245;52.026;8.540;2023-07-30T05:36:55;51262.44;;;-145.42;100.00
49367;BME280;35245;52.026;8.540;2023-07-30T05:39:22;51246.59;;;-145.42;100.00
49367;BME280;35245;52.026;8.540;2023-07-30T05:41:49;51250.56;;;-145.42;100.00
49367;BME280;35245;52.026;8.540;2023-07-30T05:44:16;51268.41;;;-145.42;100.00
49367;BME280;35245;52.026;8.540;2023-07-30T05:46:43;51268.41;;;-145.42;100.00
49367;BME280;35245;52.026;8.540;2023-07-30T05:49:11;51256.50;;;-145.42;100.00
49367;BME280;35245;52.026;8.540;2023-07-30T05:51:40;51276.31;;;-145.42;100.00
49367;BME280;35245;52.026;8.540;2023-07-30T05:54:09;51290.22;;;-145.42;100.00
49367;BME280;35245;52.026;8.540;2023-07-30T05:56:36;51276.31;;;-145.42;100.00
49367;BME280;35245;52.026;8.540;2023-07-30T05:59:03;51262.44;;;-145.42;100.00
49367;BME280;35245;52.026;8.540;2023-07-30T06:01:30;51298.13;;;-145.42;100.00
49367;BME280;35245;52.026;8.540;2023-07-30T06:03:57;51280.28;;;-145.42;100.00
49367;BME280;35245;52.026;8.540;2023-07-30T06:06:24;51248.56;;;-145.42;100.00
49367;BME280;35245;52.026;8.540;2023-07-30T06:08:53;51276.31;;;-145.42;100.00
49367;BME280;35245;52.026;8.540;2023-07-30T06:11:22;51280.28;;;-145.42;100.00
49367;BME280;35245;52.026;8.540;2023-07-30T06:13:49;51286.25;;;-145.42;100.00
49367;BME280;35245;52.026;8.540;2023-07-30T06:16:18;51270.38;;;-145.42;100.00
49367;BME280;35245;52.026;8.540;2023-07-30T06:18:46;51242.63;;;-145.42;100.00
49367;BME280;35245;52.026;8.540;2023-07-30T06:21:13;51240.66;;;-145.42;100.00
49367;BME280;35245;52.026;8.540;2023-07-30T06:23:40;51224.78;;;-145.42;100.00
49367;BME280;35245;52.026;8.540;2023-07-30T06:26:07;51272.38;;;-145.42;100.00
49367;BME280;35245;52.026;8.540;2023-07-30T06:28:36;51232.72;;;-145.42;100.00
49367;BME280;35245;52.026;8.540;2023-07-30T06:31:03;51280.28;;;-145.42;100.00
49367;BME280;35245;52.026;8.540;2023-07-30T06:33:30;51288.22;;;-145.42;100.00
49367;BME280;35245;52.026;8.540;2023-07-30T06:35:57;51252.53;;;-145.42;100.00
49367;BME280;35245;52.026;8.540;2023-07-30T06:38:24;51248.56;;;-145.42;100.00
49367;BME280;35245;52.026;8.540;2023-07-30T06:40:52;51294.16;;;-145.42;100.00
49367;BME280;35245;52.026;8.540;2023-07-30T06:43:19;51290.22;;;-145.42;100.00
49367;BME280;35245;52.026;8.540;2023-07-30T06:45:48;51264.44;;;-145.42;100.00
49367;BME280;35245;52.026;8.540;2023-07-30T06:48:15;51290.22;;;-145.42;100.00
49367;BME280;35245;52.026;8.540;2023-07-30T06:50:42;51252.53;;;-145.42;100.00
49367;BME280;35245;52.026;8.540;2023-07-30T06:53:09;51282.28;;;-145.42;100.00
49367;BME280;35245;52.026;8.540;2023-07-30T06:55:37;51290.22;;;-145.42;100.00
49367;BME280;35245;52.026;8.540;2023-07-30T06:58:04;51234.69;;;-145.42;100.00
49367;BME280;35245;52.026;8.540;2023-07-30T07:00:31;51260.47;;;-145.42;100.00
49367;BME280;35245;52.026;8.540;2023-07-30T07:02:59;51270.38;;;-145.42;100.00
49367;BME280;35245;52.026;8.540;2023-07-30T07:05:26;51280.28;;;-145.42;100.00
49367;BME280;35245;52.026;8.540;2023-07-30T07:07:54;51276.31;;;-145.42;100.00
49367;BME280;35245;52.026;8.540;2023-07-30T07:10:21;51256.50;;;-145.42;100.00
49367;BME280;35245;52.026;8.540;2023-07-30T07:12:48;51296.16;;;-145.42;100.00
49367;BME280;35245;52.026;8.540;2023-07-30T07:15:15;51258.50;;;-145.42;100.00
49367;BME280;35245;52.026;8.540;2023-07-30T07:17:43;51266.41;;;-145.42;100.00
49367;BME280;35245;52.026;8.540;2023-07-30T07:20:11;51314.00;;;-145.42;100.00
49367;BME280;35245;52.026;8.540;2023-07-30T07:22:38;51302.09;;;-145.42;100.00
49367;BME280;35245;52.026;8.540;2023-07-30T07:25:06;51298.13;;;-145.42;100.00
49367;BME280;35245;52.026;8.540;2023-07-30T07:27:34;51294.16;;;-145.42;100.00
49367;BME280;35245;52.026;8.540;2023-07-30T07:30:01;51286.25;;;-145.42;100.00
49367;BME280;35245;52.026;8.540;2023-07-30T07:32:28;51294.16;;;-145.42;100.00
49367;BME280;35245;52.026;8.540;2023-07-30T07:34:55;51298.13;;;-145.42;100.00
49367;BME280;35245;52.026;8.540;2023-07-30T07:37:24;51304.09;;;-145.42;100.00
49367;BME280;35245;52.026;8.540;2023-07-30T07:39:51;51296.16;;;-145.42;100.00
49367;BME280;35245;52.026;8.540;2023-07-30T07:42:19;51228.75;;;-145.42;100.00
49367;BME280;35245;52.026;8.540;2023-07-30T07:44:46;51262.44;;;-145.42;100.00
49367;BME280;35245;52.026;8.540;2023-07-30T07:47:13;51319.94;;;-145.42;100.00
49367;BME280;35245;52.026;8.540;2023-07-30T07:49:40;51300.13;;;-145.42;100.00
49367;BME280;35245;52.026;8.540;2023-07-30T07:52:08;51280.28;;;-145.42;100.00
49367;BME280;35245;52.026;8.540;2023-07-30T07:54:36;51268.41;;;-145.42;100.00
49367;BME280;35245;52.026;8.540;2023-07-30T07:57:04;51270.38;;;-145.42;100.00
49367;BME280;35245;52.026;8.540;2023-07-30T07:59:31;51314.00;;;-145.42;100.00
49367;BME280;35245;52.026;8.540;2023-07-30T08:01:58;51274.34;;;-145.42;100.00
49367;BME280;35245;52.026;8.540;2023-07-30T08:04:26;51276.31;;;-145.42;100.00
49367;BME280;35245;52.026;8.540;2023-07-30T08:06:53;51298.13;;;-145.42;100.00
49367;BME280;35245;52.026;8.540;2023-07-30T08:09:20;51312.00;;;-145.42;100.00
49367;BME280;35245;52.026;8.540;2023-07-30T08:11:48;51319.94;;;-145.42;100.00
49367;BME280;35245;52.026;8.540;2023-07-30T08:14:15;51298.13;;;-145.42;100.00
49367;BME280;35245;52.026;8.540;2023-07-30T08:16:42;51274.34;;;-145.42;100.00
49367;BME280;35245;52.026;8.540;2023-07-30T08:19:10;51306.06;;;-145.42;100.00
49367;BME280;35245;52.026;8.540;2023-07-30T08:21:37;51288.22;;;-145.42;100.00
49367;BME280;35245;52.026;8.540;2023-07-30T08:24:04;51315.97;;;-145.42;100.00
49367;BME280;35245;52.026;8.540;2023-07-30T08:26:32;51325.88;;;-145.42;100.00
49367;BME280;35245;52.026;8.540;2023-07-30T08:29:01;51280.28;;;-145.42;100.00
49367;BME280;35245;52.026;8.540;2023-07-30T08:31:29;51331.84;;;-145.42;100.00
49367;BME280;35245;52.026;8.540;2023-07-30T08:33:56;51312.00;;;-145.42;100.00
49367;BME280;35245;52.026;8.540;2023-07-30T08:36:23;51300.13;;;-145.42;100.00
49367;BME280;35245;52.026;8.540;2023-07-30T08:38:50;51280.28;;;-145.42;100.00
49367;BME280;35245;52.026;8.540;2023-07-30T08:41:17;51282.28;;;-145.42;100.00
49367;BME280;35245;52.026;8.540;2023-07-30T08:43:44;51246.59;;;-145.42;100.00
49367;BME280;35245;52.026;8.540;2023-07-30T08:46:15;51268.41;;;-145.42;100.00
49367;BME280;35245;52.026;8.540;2023-07-30T08:48:43;51292.19;;;-145.42;100.00
49367;BME280;35245;52.026;8.540;2023-07-30T08:51:10;51272.38;;;-145.42;100.00
49367;BME280;35245;52.026;8.540;2023-07-30T08:53:38;51321.91;;;-145.42;100.00
49367;BME280;35245;52.026;8.540;2023-07-30T08:56:05;51302.09;;;-145.42;100.00
49367;BME280;35245;52.026;8.540;2023-07-30T08:58:33;51256.50;;;-145.42;100.00
49367;BME280;35245;52.026;8.540;2023-07-30T09:01:09;51254.53;;;-145.42;100.00
49367;BME280;35245;52.026;8.540;2023-07-30T09:03:39;51258.50;;;-145.42;100.00
49367;BME280;35245;52.026;8.540;2023-07-30T09:06:07;51264.44;;;-145.42;100.00
49367;BME280;35245;52.026;8.540;2023-07-30T09:08:34;51286.25;;;-145.42;100.00
49367;BME280;35245;52.026;8.540;2023-07-30T09:11:07;51296.16;;;-145.42;100.00
49367;BME280;35245;52.026;8.540;2023-07-30T09:13:37;51262.44;;;-145.42;100.00
49367;BME280;35245;52.026;8.540;2023-07-30T09:16:09;51290.22;;;-145.42;100.00
49367;BME280;35245;52.026;8.540;2023-07-30T09:18:44;51304.09;;;-145.42;100.00
49367;BME280;35245;52.026;8.540;2023-07-30T09:21:12;51266.41;;;-145.42;100.00
49367;BME280;35245;52.026;8.540;2023-07-30T09:23:40;51304.09;;;-145.42;100.00
49367;BME280;35245;52.026;8.540;2023-07-30T09:26:08;51327.88;;;-145.42;100.00
49367;BME280;35245;52.026;8.540;2023-07-30T09:28:35;51302.09;;;-145.42;100.00
49367;BME280;35245;52.026;8.540;2023-07-30T09:31:03;51312.00;;;-145.42;100.00
49367;BME280;35245;52.026;8.540;2023-07-30T09:33:31;51312.00;;;-145.42;100.00
49367;BME280;35245;52.026;8.540;2023-07-30T09:36:01;51304.09;;;-145.42;100.00
49367;BME280;35245;52.026;8.540;2023-07-30T09:38:29;51282.28;;;-145.42;100.00
49367;BME280;35245;52.026;8.540;2023-07-30T09:41:00;51284.25;;;-145.42;100.00
49367;BME280;35245;52.026;8.540;2023-07-30T09:43:29;51290.22;;;-145.42;100.00
49367;BME280;35245;52.026;8.540;2023-07-30T09:46:02;51264.44;;;-145.42;100.00
49367;BME280;35245;52.026;8.540;2023-07-30T09:48:30;51282.28;;;-145.42;100.00
49367;BME280;35245;52.026;8.540;2023-07-30T09:51:02;51319.94;;;-145.42;100.00
49367;BME280;35245;52.026;8.540;2023-07-30T09:53:29;51298.13;;;-145.42;100.00
49367;BME280;35245;52.026;8.540;2023-07-30T09:56:01;51234.69;;;-145.42;100.00
49367;BME280;35245;52.026;8.540;2023-07-30T09:58:28;51312.00;;;-145.42;100.00
49367;BME280;35245;52.026;8.540;2023-07-30T10:00:58;51343.72;;;-145.42;100.00
49367;BME280;35245;52.026;8.540;2023-07-30T10:03:27;51331.84;;;-145.42;100.00
49367;BME280;35245;52.026;8.540;2023-07-30T10:06:02;51327.88;;;-145.42;100.00
49367;BME280;35245;52.026;8.540;2023-07-30T10:08:34;51323.91;;;-145.42;100.00
49367;BME280;35245;52.026;8.540;2023-07-30T10:11:04;51264.44;;;-145.42;100.00
49367;BME280;35245;52.026;8.540;2023-07-30T10:13:33;51319.94;;;-145.42;100.00
49367;BME280;35245;52.026;8.540;2023-07-30T10:16:00;51292.19;;;-145.42;100.00
49367;BME280;35245;52.026;8.540;2023-07-30T10:18:34;51264.44;;;-145.42;100.00
49367;BME280;35245;52.026;8.540;2023-07-30T10:21:08;51325.88;;;-145.42;100.00
49367;BME280;35245;52.026;8.540;2023-07-30T10:23:36;51319.94;;;-145.42;100.00
49367;BME280;35245;52.026;8.540;2023-07-30T10:26:12;51282.28;;;-145.42;100.00
49367;BME280;35245;52.026;8.540;2023-07-30T10:28:39;51335.81;;;-145.42;100.00
49367;BME280;35245;52.026;8.540;2023-07-30T10:31:09;51319.94;;;-145.42;100.00
49367;BME280;35245;52.026;8.540;2023-07-30T10:33:49;51304.09;;;-145.42;100.00
49367;BME280;35245;52.026;8.540;2023-07-30T10:38:54;51300.13;;;-145.42;100.00
49367;BME280;35245;52.026;8.540;2023-07-30T10:41:21;51315.97;;;-145.42;100.00
49367;BME280;35245;52.026;8.540;2023-07-30T10:43:50;51353.63;;;-145.42;100.00
49367;BME280;35245;52.026;8.540;2023-07-30T10:46:19;51319.94;;;-145.42;100.00
49367;BME280;35245;52.026;8.540;2023-07-30T10:48:48;51373.47;;;-145.42;100.00
49367;BME280;35245;52.026;8.540;2023-07-30T10:51:18;51373.47;;;-145.42;100.00
49367;BME280;35245;52.026;8.540;2023-07-30T10:53:47;51343.72;;;-145.42;100.00
49367;BME280;35245;52.026;8.540;2023-07-30T10:56:17;51407.16;;;-145.42;97.46
49367;BME280;35245;52.026;8.540;2023-07-30T10:58:50;51373.47;;;-145.42;94.78
49367;BME280;35245;52.026;8.540;2023-07-30T11:01:18;51383.38;;;-145.42;89.93
49367;BME280;35245;52.026;8.540;2023-07-30T11:03:50;51415.09;;;-145.42;88.17
49367;BME280;35245;52.026;8.540;2023-07-30T11:06:23;51421.03;;;-145.42;86.00
49367;BME280;35245;52.026;8.540;2023-07-30T11:08:50;51434.91;;;-145.42;79.82
49367;BME280;35245;52.026;8.540;2023-07-30T11:11:17;51448.78;;;-145.42;79.76
49367;BME280;35245;52.026;8.540;2023-07-30T11:13:46;51413.13;;;-145.42;82.64
49367;BME280;35245;52.026;8.540;2023-07-30T11:16:15;51393.28;;;-145.42;85.81
49367;BME280;35245;52.026;8.540;2023-07-30T11:18:44;51395.28;;;-145.42;84.85
49367;BME280;35245;52.026;8.540;2023-07-30T11:21:14;51383.38;;;-145.42;83.41
49367;BME280;35245;52.026;8.540;2023-07-30T11:23:45;51405.19;;;-145.42;78.53
49367;BME280;35245;52.026;8.540;2023-07-30T11:26:16;51428.97;;;-145.42;78.56
49367;BME280;35245;52.026;8.540;2023-07-30T11:28:44;51397.25;;;-145.42;79.27
49367;BME280;35245;52.026;8.540;2023-07-30T11:31:13;51434.91;;;-145.42;76.29
49367;BME280;35245;52.026;8.540;2023-07-30T11:33:42;51417.06;;;-145.42;75.78
49367;BME280;35245;52.026;8.540;2023-07-30T11:36:12;51427.00;;;-145.42;74.11
49367;BME280;35245;52.026;8.540;2023-07-30T11:38:39;51403.19;;;-145.42;74.24
49367;BME280;35245;52.026;8.540;2023-07-30T11:41:09;51434.91;;;-145.42;71.02
49367;BME280;35245;52.026;8.540;2023-07-30T11:43:38;51434.91;;;-145.42;71.02
49367;BME280;35245;52.026;8.540;2023-07-30T11:46:08;51415.09;;;-145.42;72.85
49367;BME280;35245;52.026;8.540;2023-07-30T11:48:35;51427.00;;;-145.42;70.08
49367;BME280;35245;52.026;8.540;2023-07-30T11:51:03;51454.75;;;-145.42;63.89
49367;BME280;35245;52.026;8.540;2023-07-30T11:53:47;51440.88;;;-145.42;61.12
49367;BME280;35245;52.026;8.540;2023-07-30T11:56:22;51490.44;;;-145.42;56.58
49367;BME280;35245;52.026;8.540;2023-07-30T11:58:56;51468.63;;;-145.42;56.16
49367;BME280;35245;52.026;8.540;2023-07-30T12:01:25;51468.63;;;-145.42;56.04
49367;BME280;35245;52.026;8.540;2023-07-30T12:03:55;51419.06;;;-145.42;58.25
49367;BME280;35245;52.026;8.540;2023-07-30T12:06:22;51389.31;;;-145.42;63.52
49367;BME280;35245;52.026;8.540;2023-07-30T12:08:50;51407.16;;;-145.42;61.35
49367;BME280;35245;52.026;8.540;2023-07-30T12:11:19;51363.56;;;-145.42;66.13
49367;BME280;35245;52.026;8.540;2023-07-30T12:13:47;51379.41;;;-145.42;65.10
49367;BME280;35245;52.026;8.540;2023-07-30T12:16:16;51397.25;;;-145.42;67.44
49367;BME280;35245;52.026;8.540;2023-07-30T12:18:43;51393.28;;;-145.42;75.15
49367;BME280;35245;52.026;8.540;2023-07-30T12:21:11;51393.28;;;-145.42;74.25
49367;BME280;35245;52.026;8.540;2023-07-30T12:23:38;51399.25;;;-145.42;71.71
49367;BME280;35245;52.026;8.540;2023-07-30T12:26:05;51498.34;;;-145.42;61.33
49367;BME280;35245;52.026;8.540;2023-07-30T12:28:34;51530.06;;;-145.42;56.59
49367;BME280;35245;52.026;8.540;2023-07-30T12:31:01;51512.22;;;-145.42;56.46
49367;BME280;35245;52.026;8.540;2023-07-30T12:33:28;51541.97;;;-145.42;50.25
49367;BME280;35245;52.026;8.540;2023-07-30T12:35:55;51569.72;;;-145.42;43.76
49367;BME280;35245;52.026;8.540;2023-07-30T12:38:22;51708.50;;;-145.42;38.74